Time;durP1;ratioP1;P1;durP2;ratioP2;P2;SDS_P1;SDS_P2;PMS_P1;PMS_P2;Temp;Humidity;BMP_temperature;BMP_pressure;BME280_temperature;BME280_humidity;BME280_pressure;Samples;Min_cycle;Max_cycle;Signal;HPM_P1;HPM_P2
2023/12/21 00:00:50;;;;;;;0.00;0.00;;;6.20;99.90;;;;;;5050339;28;20255;-74
2023/12/21 00:03:17;;;;;;;0.00;0.00;;;6.20;99.90;;;;;;5049674;28;20704;-75
2023/12/21 00:05:43;;;;;;;0.00;0.00;;;6.20;99.90;;;;;;5050725;28;20205;-75
2023/12/21 00:08:08;;;;;;;0.00;0.00;;;6.20;99.90;;;;;;5050612;28;20207;-74
2023/12/21 00:10:34;;;;;;;0.00;0.00;;;6.20;99.90;;;;;;5050628;28;20185;-74
2023/12/21 00:12:59;;;;;;;0.00;0.00;;;6.30;99.90;;;;;;5050395;28;20170;-74
2023/12/21 00:15:25;;;;;;;0.00;0.00;;;6.20;99.90;;;;;;5050710;28;20548;-74
2023/12/21 00:17:50;;;;;;;0.00;0.00;;;6.20;99.90;;;;;;5050642;28;20213;-74
2023/12/21 00:20:16;;;;;;;0.00;0.00;;;6.30;99.90;;;;;;5050608;28;20201;-75
2023/12/21 00:22:42;;;;;;;0.00;0.00;;;6.20;99.90;;;;;;5049768;28;20777;-74
2023/12/21 00:25:07;;;;;;;0.00;0.00;;;6.30;99.90;;;;;;5050509;28;20173;-73
2023/12/21 00:27:33;;;;;;;0.00;0.00;;;6.30;99.90;;;;;;5050523;28;20177;-74
2023/12/21 00:29:59;;;;;;;0.00;0.00;;;6.20;99.90;;;;;;5050144;28;20204;-74
2023/12/21 00:32:25;;;;;;;0.00;0.00;;;6.30;99.90;;;;;;5049305;28;20177;-74
2023/12/21 00:34:50;;;;;;;0.00;0.00;;;6.20;99.90;;;;;;5048704;28;20196;-74
2023/12/21 00:37:16;;;;;;;0.00;0.00;;;6.30;99.90;;;;;;5050476;28;20813;-72
2023/12/21 00:39:41;;;;;;;0.00;0.00;;;6.30;99.90;;;;;;5050092;28;20771;-73
2023/12/21 00:42:07;;;;;;;0.00;0.00;;;6.30;99.90;;;;;;5050091;28;20451;-73
2023/12/21 00:44:32;;;;;;;0.00;0.00;;;6.30;99.90;;;;;;5050157;28;20201;-72
2023/12/21 00:46:58;;;;;;;0.00;0.00;;;6.30;99.90;;;;;;5050107;28;20216;-73
2023/12/21 00:49:23;;;;;;;0.00;0.00;;;6.30;99.90;;;;;;5050130;28;20173;-73
2023/12/21 00:51:49;;;;;;;0.00;0.00;;;6.40;99.90;;;;;;5050205;28;20213;-73
2023/12/21 00:54:14;;;;;;;0.00;0.00;;;6.40;99.90;;;;;;5050372;28;20645;-73
2023/12/21 00:56:40;;;;;;;0.00;0.00;;;6.40;99.90;;;;;;5048984;28;20182;-74
2023/12/21 00:59:05;;;;;;;0.00;0.00;;;6.40;99.90;;;;;;5049931;28;20544;-74
2023/12/21 01:01:31;;;;;;;0.00;0.00;;;6.40;99.90;;;;;;5050147;28;20210;-73
2023/12/21 01:03:56;;;;;;;0.00;0.00;;;6.40;99.90;;;;;;5049862;28;20533;-74
2023/12/21 01:06:22;;;;;;;0.00;0.00;;;6.40;99.90;;;;;;5050465;28;20185;-74
2023/12/21 01:08:48;;;;;;;0.00;0.00;;;6.40;99.90;;;;;;5049861;28;20778;-75
2023/12/21 01:11:13;;;;;;;0.00;0.00;;;6.40;99.90;;;;;;5050100;28;20182;-74
2023/12/21 01:13:39;;;;;;;0.00;0.00;;;6.40;99.90;;;;;;5049913;28;20181;-74
2023/12/21 01:16:05;;;;;;;0.00;0.00;;;6.50;99.90;;;;;;5051950;28;20224;-73
2023/12/21 01:18:30;;;;;;;0.00;0.00;;;6.50;99.90;;;;;;5053580;28;20178;-73
2023/12/21 01:20:56;;;;;;;0.00;0.00;;;6.50;99.90;;;;;;5050506;28;20220;-74
2023/12/21 01:23:21;;;;;;;0.00;0.00;;;6.50;99.90;;;;;;5052732;28;20189;-74
2023/12/21 01:25:47;;;;;;;0.00;0.00;;;6.50;99.90;;;;;;5052873;28;20228;-72
2023/12/21 01:28:13;;;;;;;0.00;0.00;;;6.50;99.90;;;;;;5053081;28;20644;-72
2023/12/21 01:30:38;;;;;;;0.00;0.00;;;6.50;99.90;;;;;;5052652;28;20174;-73
2023/12/21 01:33:04;;;;;;;0.00;0.00;;;6.60;99.90;;;;;;5052641;28;20181;-75
2023/12/21 01:35:29;;;;;;;0.00;0.00;;;6.60;99.90;;;;;;5052829;28;20217;-74
2023/12/21 01:37:55;;;;;;;0.00;0.00;;;6.60;99.90;;;;;;5052599;28;20221;-75
2023/12/21 01:40:22;;;;;;;0.00;0.00;;;6.60;99.90;;;;;;5052692;28;20243;-74
2023/12/21 01:42:48;;;;;;;0.00;0.00;;;6.60;99.90;;;;;;5052139;28;20184;-74
2023/12/21 01:45:14;;;;;;;0.00;0.00;;;6.70;99.90;;;;;;5052743;28;20174;-73
2023/12/21 01:47:40;;;;;;;0.00;0.00;;;6.70;99.90;;;;;;5052600;28;20604;-73
2023/12/21 01:50:06;;;;;;;0.00;0.00;;;6.60;99.90;;;;;;5052580;28;20231;-73
2023/12/21 01:52:32;;;;;;;0.00;0.00;;;6.70;99.90;;;;;;5052547;28;20178;-73
2023/12/21 01:54:59;;;;;;;0.00;0.00;;;6.70;99.90;;;;;;5051710;28;20186;-73
2023/12/21 01:57:25;;;;;;;0.00;0.00;;;6.70;99.90;;;;;;5052817;28;20170;-73
2023/12/21 01:59:51;;;;;;;0.00;0.00;;;6.70;99.90;;;;;;5051152;28;20213;-73
2023/12/21 02:02:16;;;;;;;0.00;0.00;;;6.70;99.90;;;;;;5052203;28;20182;-73
2023/12/21 02:04:43;;;;;;;0.00;0.00;;;6.80;99.90;;;;;;5053048;28;20185;-74
2023/12/21 02:07:09;;;;;;;0.00;0.00;;;6.80;99.90;;;;;;5052515;28;20189;-74
2023/12/21 02:09:34;;;;;;;0.00;0.00;;;6.80;99.90;;;;;;5052315;28;20211;-73
2023/12/21 02:12:00;;;;;;;0.00;0.00;;;6.80;99.90;;;;;;5051890;28;20190;-72
2023/12/21 02:14:25;;;;;;;0.00;0.00;;;6.80;99.90;;;;;;5052239;28;20177;-72
2023/12/21 02:17:01;;;;;;;0.00;0.00;;;6.80;99.90;;;;;;5052089;28;20170;-72
2023/12/21 02:19:28;;;;;;;0.00;0.00;;;6.80;99.90;;;;;;5052034;28;20188;-73
2023/12/21 02:21:56;;;;;;;0.00;0.00;;;6.80;99.90;;;;;;5050890;28;20524;-73
2023/12/21 02:24:22;;;;;;;0.00;0.00;;;6.80;99.90;;;;;;5052336;28;20267;-73
2023/12/21 02:26:48;;;;;;;0.00;0.00;;;6.90;99.90;;;;;;5050454;28;20181;-73
2023/12/21 02:29:13;;;;;;;0.00;0.00;;;6.90;99.90;;;;;;5052039;28;20182;-73
2023/12/21 02:31:39;;;;;;;0.00;0.00;;;6.90;99.90;;;;;;5052192;28;20184;-74
2023/12/21 02:34:08;;;;;;;0.00;0.00;;;6.90;99.90;;;;;;5052175;28;20187;-73
2023/12/21 02:36:34;;;;;;;0.00;0.00;;;6.90;99.90;;;;;;5052058;28;20173;-73
2023/12/21 02:38:59;;;;;;;0.00;0.00;;;7.00;99.90;;;;;;5050458;28;20228;-73
2023/12/21 02:41:25;;;;;;;0.00;0.00;;;7.00;99.90;;;;;;5051740;28;20212;-73
2023/12/21 02:43:50;;;;;;;0.00;0.00;;;7.00;99.90;;;;;;5052027;28;20536;-74
2023/12/21 02:46:18;;;;;;;0.00;0.00;;;7.00;99.90;;;;;;5051539;28;20541;-73
2023/12/21 02:48:44;;;;;;;0.00;0.00;;;7.00;99.90;;;;;;5051973;28;20184;-71
2023/12/21 02:51:09;;;;;;;0.00;0.00;;;7.10;99.90;;;;;;5051408;28;20193;-73
2023/12/21 02:53:35;;;;;;;0.00;0.00;;;7.10;99.90;;;;;;5051170;28;20260;-73
2023/12/21 02:56:00;;;;;;;0.00;0.00;;;7.10;99.90;;;;;;5051454;28;20181;-73
2023/12/21 02:58:26;;;;;;;0.00;0.00;;;7.10;99.90;;;;;;5050626;28;20186;-73
2023/12/21 03:00:51;;;;;;;0.00;0.00;;;7.10;99.90;;;;;;5051456;28;20244;-73
2023/12/21 03:03:17;;;;;;;0.00;0.00;;;7.10;99.90;;;;;;5051169;28;20188;-73
2023/12/21 03:05:42;;;;;;;0.00;0.00;;;7.20;99.90;;;;;;5051487;28;20216;-72
2023/12/21 03:08:08;;;;;;;0.00;0.00;;;7.20;99.90;;;;;;5051627;28;20289;-73
2023/12/21 03:10:33;;;;;;;0.00;0.00;;;7.20;99.90;;;;;;5051047;28;20224;-73
2023/12/21 03:12:59;;;;;;;0.00;0.00;;;7.30;99.90;;;;;;5050128;28;20606;-74
2023/12/21 03:15:24;;;;;;;0.00;0.00;;;7.30;99.90;;;;;;5051811;28;20223;-72
2023/12/21 03:17:51;;;;;;;0.00;0.00;;;7.30;99.90;;;;;;5052145;28;20276;-71
2023/12/21 03:20:17;;;;;;;0.00;0.00;;;7.30;99.90;;;;;;5050362;28;20596;-72
2023/12/21 03:22:43;;;;;;;0.00;0.00;;;7.30;99.90;;;;;;5051277;28;20173;-71
2023/12/21 03:25:08;;;;;;;0.00;0.00;;;7.30;99.90;;;;;;5057113;28;20213;-72
2023/12/21 03:27:34;;;;;;;0.00;0.00;;;7.40;99.90;;;;;;5062688;28;20177;-73
2023/12/21 03:30:00;;;;;;;0.00;0.00;;;7.30;99.90;;;;;;5060258;28;20170;-74
2023/12/21 03:32:27;;;;;;;0.00;0.00;;;7.30;99.90;;;;;;5056067;28;20189;-73
2023/12/21 03:34:52;;;;;;;0.00;0.00;;;7.30;99.90;;;;;;5057930;28;20173;-72
2023/12/21 03:37:18;;;;;;;0.00;0.00;;;7.30;99.90;;;;;;5056130;28;20185;-74
2023/12/21 03:39:43;;;;;;;0.00;0.00;;;7.30;99.90;;;;;;5051234;28;20636;-73
2023/12/21 03:42:09;;;;;;;0.00;0.00;;;7.40;99.90;;;;;;5059977;28;20187;-72
2023/12/21 03:44:34;;;;;;;0.00;0.00;;;7.30;99.90;;;;;;5058054;28;20180;-73
2023/12/21 03:47:00;;;;;;;0.00;0.00;;;7.40;99.90;;;;;;5059038;28;20195;-73
2023/12/21 03:49:29;;;;;;;0.00;0.00;;;7.40;99.90;;;;;;5058639;28;20174;-74
2023/12/21 03:51:56;;;;;;;0.00;0.00;;;7.40;99.90;;;;;;5056607;28;20200;-74
2023/12/21 03:54:21;;;;;;;0.00;0.00;;;7.40;99.90;;;;;;5050619;28;20181;-73
2023/12/21 03:56:47;;;;;;;0.00;0.00;;;7.40;99.90;;;;;;5050853;28;20193;-73
2023/12/21 03:59:12;;;;;;;0.00;0.00;;;7.50;99.90;;;;;;5050577;28;20847;-73
2023/12/21 04:01:38;;;;;;;0.00;0.00;;;7.50;99.90;;;;;;5050639;28;20260;-74
2023/12/21 04:04:03;;;;;;;0.00;0.00;;;7.50;99.90;;;;;;5050530;28;20209;-73
2023/12/21 04:06:29;;;;;;;0.00;0.00;;;7.50;99.90;;;;;;5050812;28;20260;-73
2023/12/21 04:08:54;;;;;;;0.00;0.00;;;7.50;99.90;;;;;;5050786;28;20177;-75
2023/12/21 04:11:20;;;;;;;0.00;0.00;;;7.50;99.90;;;;;;5050768;28;20196;-74
2023/12/21 04:13:49;;;;;;;0.00;0.00;;;7.50;99.90;;;;;;5050596;28;20604;-73
2023/12/21 04:16:15;;;;;;;0.00;0.00;;;7.50;99.90;;;;;;5050247;28;20186;-74
2023/12/21 04:18:40;;;;;;;0.00;0.00;;;7.50;99.90;;;;;;5050336;28;20177;-74
2023/12/21 04:21:07;;;;;;;0.00;0.00;;;7.50;99.90;;;;;;5048617;28;20623;-74
2023/12/21 04:23:33;;;;;;;0.00;0.00;;;7.50;99.90;;;;;;5049616;28;20256;-73
2023/12/21 04:25:58;;;;;;;0.00;0.00;;;7.50;99.90;;;;;;5050306;28;20174;-74
2023/12/21 04:28:24;;;;;;;0.00;0.00;;;7.50;99.90;;;;;;5050141;28;20247;-73
2023/12/21 04:30:49;;;;;;;0.00;0.00;;;7.50;99.90;;;;;;5050302;28;20540;-73
2023/12/21 04:33:16;;;;;;;0.00;0.00;;;7.50;99.90;;;;;;5048901;28;20209;-72
2023/12/21 04:35:45;;;;;;;0.00;0.00;;;7.50;99.90;;;;;;5050453;28;20182;-71
2023/12/21 04:38:14;;;;;;;0.00;0.00;;;7.50;99.90;;;;;;5050036;28;20213;-70
2023/12/21 04:40:39;;;;;;;0.00;0.00;;;7.40;99.90;;;;;;5050185;28;20216;-70
2023/12/21 04:43:08;;;;;;;0.00;0.00;;;7.40;99.90;;;;;;5050432;28;20196;-67
2023/12/21 04:45:33;;;;;;;0.00;0.00;;;7.40;99.90;;;;;;5031298;28;20277;-66
2023/12/21 04:47:59;;;;;;;0.00;0.00;;;7.40;99.90;;;;;;5040812;28;20252;-66
2023/12/21 04:50:24;;;;;;;0.00;0.00;;;7.40;99.90;;;;;;5053819;28;20695;-65
2023/12/21 04:52:51;;;;;;;0.00;0.00;;;7.40;99.90;;;;;;5054437;28;20188;-68
2023/12/21 04:55:17;;;;;;;0.00;0.00;;;7.40;99.90;;;;;;5054081;28;20193;-69
2023/12/21 04:57:43;;;;;;;0.00;0.00;;;7.40;99.90;;;;;;5054455;28;20547;-69
2023/12/21 05:00:09;;;;;;;0.00;0.00;;;7.50;99.90;;;;;;5054283;28;20213;-67
2023/12/21 05:02:34;;;;;;;0.00;0.00;;;7.50;99.90;;;;;;5054298;28;20189;-69
2023/12/21 05:05:00;;;;;;;0.00;0.00;;;7.60;99.90;;;;;;5054106;28;20299;-69
2023/12/21 05:07:26;;;;;;;0.00;0.00;;;7.60;99.90;;;;;;5052495;28;20303;-73
2023/12/21 05:09:58;;;;;;;0.00;0.00;;;7.60;99.90;;;;;;5053264;28;20644;-72
2023/12/21 05:12:24;;;;;;;0.00;0.00;;;7.60;99.90;;;;;;5052255;28;20174;-72
2023/12/21 05:14:50;;;;;;;0.00;0.00;;;7.60;99.90;;;;;;5054401;28;20250;-72
2023/12/21 05:17:16;;;;;;;0.00;0.00;;;7.70;99.90;;;;;;5053528;28;20628;-72
2023/12/21 05:19:42;;;;;;;0.00;0.00;;;7.70;99.90;;;;;;5054100;28;20235;-72
2023/12/21 05:22:08;;;;;;;0.00;0.00;;;7.60;99.90;;;;;;5054280;28;20584;-71
2023/12/21 05:24:33;;;;;;;0.00;0.00;;;7.70;99.90;;;;;;5054223;28;20181;-71
2023/12/21 05:26:59;;;;;;;0.00;0.00;;;7.70;99.90;;;;;;5052819;28;20186;-72
2023/12/21 05:29:25;;;;;;;0.00;0.00;;;7.70;99.90;;;;;;5054253;28;20180;-71
2023/12/21 05:31:50;;;;;;;0.00;0.00;;;7.70;99.90;;;;;;5054034;28;20678;-72
2023/12/21 05:34:16;;;;;;;0.00;0.00;;;7.70;99.90;;;;;;5053956;28;20208;-72
2023/12/21 05:36:41;;;;;;;0.00;0.00;;;7.70;99.90;;;;;;5054393;28;20257;-72
2023/12/21 05:39:09;;;;;;;0.00;0.00;;;7.70;99.90;;;;;;5053548;28;20609;-71
2023/12/21 05:41:34;;;;;;;0.00;0.00;;;7.70;99.90;;;;;;5054049;28;20266;-71
2023/12/21 05:44:00;;;;;;;0.00;0.00;;;7.70;99.90;;;;;;5053757;28;20189;-71
2023/12/21 05:46:25;;;;;;;0.00;0.00;;;7.70;99.90;;;;;;5053842;28;20192;-72
2023/12/21 05:48:51;;;;;;;0.00;0.00;;;7.70;99.90;;;;;;5053819;28;20319;-71
2023/12/21 05:51:16;;;;;;;0.00;0.00;;;7.70;99.90;;;;;;5053714;28;20650;-71
2023/12/21 05:53:42;;;;;;;0.00;0.00;;;7.70;99.90;;;;;;5053739;28;20165;-71
2023/12/21 05:56:07;;;;;;;0.00;0.00;;;7.70;99.90;;;;;;5053626;28;20184;-72
2023/12/21 05:58:34;;;;;;;0.00;0.00;;;7.70;99.90;;;;;;5053593;28;20166;-71
2023/12/21 06:00:59;;;;;;;0.00;0.00;;;7.70;99.90;;;;;;5051334;28;20346;-73
2023/12/21 06:03:24;;;;;;;0.00;0.00;;;7.70;99.90;;;;;;5053456;28;20199;-72
2023/12/21 06:05:50;;;;;;;0.00;0.00;;;7.70;99.90;;;;;;5053550;28;20177;-72
2023/12/21 06:08:16;;;;;;;0.00;0.00;;;7.70;99.90;;;;;;5052248;28;20527;-71
2023/12/21 06:10:42;;;;;;;0.00;0.00;;;7.70;99.90;;;;;;5053148;28;20178;-72
2023/12/21 06:13:07;;;;;;;0.00;0.00;;;7.70;99.90;;;;;;5053342;28;20224;-71
2023/12/21 06:15:33;;;;;;;0.00;0.00;;;7.70;99.90;;;;;;5053399;28;20201;-72
2023/12/21 06:17:58;;;;;;;0.00;0.00;;;7.70;99.90;;;;;;5053260;28;20294;-72
2023/12/21 06:20:24;;;;;;;0.00;0.00;;;7.70;99.90;;;;;;5053164;28;20213;-73
2023/12/21 06:22:49;;;;;;;0.00;0.00;;;7.70;99.90;;;;;;5053225;28;20645;-73
2023/12/21 06:25:15;;;;;;;0.00;0.00;;;7.70;99.90;;;;;;5053203;28;20185;-72
2023/12/21 06:27:40;;;;;;;0.00;0.00;;;7.70;99.90;;;;;;5053039;28;20256;-72
2023/12/21 06:30:07;;;;;;;0.00;0.00;;;7.70;99.90;;;;;;5052985;28;20185;-73
2023/12/21 06:32:32;;;;;;;0.00;0.00;;;7.70;99.90;;;;;;5053057;28;20793;-72
2023/12/21 06:34:58;;;;;;;0.00;0.00;;;7.70;99.90;;;;;;5052671;28;20285;-73
2023/12/21 06:37:23;;;;;;;0.00;0.00;;;7.70;99.90;;;;;;5052597;28;20188;-72
2023/12/21 06:39:49;;;;;;;0.00;0.00;;;7.70;99.90;;;;;;5052487;28;20225;-72
2023/12/21 06:42:14;;;;;;;0.00;0.00;;;7.70;99.90;;;;;;5052575;28;20196;-73
2023/12/21 06:44:40;;;;;;;0.00;0.00;;;7.70;99.90;;;;;;5052715;28;20217;-73
2023/12/21 06:47:05;;;;;;;0.00;0.00;;;7.70;99.90;;;;;;5051187;28;20186;-72
2023/12/21 06:49:31;;;;;;;0.00;0.00;;;7.70;99.90;;;;;;5052529;28;20192;-72
2023/12/21 06:51:56;;;;;;;0.00;0.00;;;7.70;99.90;;;;;;5052465;28;20637;-72
2023/12/21 06:54:22;;;;;;;0.00;0.00;;;7.80;99.90;;;;;;5052332;28;20174;-73
2023/12/21 06:56:47;;;;;;;0.00;0.00;;;7.70;99.90;;;;;;5052294;28;20578;-72
2023/12/21 06:59:13;;;;;;;0.00;0.00;;;7.80;99.90;;;;;;5052407;28;20173;-73
2023/12/21 07:01:39;;;;;;;0.00;0.00;;;7.80;99.90;;;;;;5052214;28;20217;-73
2023/12/21 07:04:04;;;;;;;0.00;0.00;;;7.80;99.90;;;;;;5052082;28;20231;-73
2023/12/21 07:06:30;;;;;;;0.00;0.00;;;7.80;99.90;;;;;;5052215;28;20540;-73
2023/12/21 07:08:55;;;;;;;0.00;0.00;;;7.80;99.90;;;;;;5052174;28;20170;-74
2023/12/21 07:11:21;;;;;;;0.00;0.00;;;7.80;99.90;;;;;;5052101;28;20177;-74
2023/12/21 07:13:47;;;;;;;0.00;0.00;;;7.80;99.90;;;;;;5052129;28;20178;-74
2023/12/21 07:16:12;;;;;;;0.00;0.00;;;7.90;99.90;;;;;;5050850;28;20189;-74
2023/12/21 07:18:38;;;;;;;0.00;0.00;;;7.90;99.90;;;;;;5052069;28;20711;-73
2023/12/21 07:21:05;;;;;;;0.00;0.00;;;7.90;99.90;;;;;;5051695;28;20581;-74
2023/12/21 07:23:30;;;;;;;0.00;0.00;;;7.90;99.90;;;;;;5051930;28;20648;-74
2023/12/21 07:25:56;;;;;;;0.00;0.00;;;7.90;99.90;;;;;;5051862;28;20173;-74
2023/12/21 07:28:22;;;;;;;0.00;0.00;;;8.00;99.90;;;;;;5051816;28;20180;-72
2023/12/21 07:30:47;;;;;;;0.17;0.17;;;8.00;99.90;;;;;;5051701;28;20234;-71
2023/12/21 07:33:13;;;;;;;0.00;0.00;;;8.00;99.90;;;;;;5051710;28;20186;-72
2023/12/21 07:35:39;;;;;;;0.00;0.00;;;8.00;99.90;;;;;;5050444;28;20185;-73
2023/12/21 07:38:05;;;;;;;0.00;0.00;;;8.00;99.90;;;;;;5051394;28;20718;-72
2023/12/21 07:40:31;;;;;;;0.00;0.00;;;8.00;99.90;;;;;;5051728;28;20432;-72
2023/12/21 07:42:57;;;;;;;0.00;0.00;;;8.00;99.90;;;;;;5051486;28;20205;-72
2023/12/21 07:45:23;;;;;;;0.00;0.00;;;8.00;99.90;;;;;;5051757;28;20170;-74
2023/12/21 07:47:48;;;;;;;0.00;0.00;;;8.00;99.90;;;;;;5050305;28;20184;-70
2023/12/21 07:50:14;;;;;;;0.00;0.00;;;8.00;99.90;;;;;;5051645;28;20230;-72
2023/12/21 07:52:40;;;;;;;0.00;0.00;;;8.00;99.90;;;;;;5051443;28;20186;-72
2023/12/21 07:55:06;;;;;;;0.00;0.00;;;7.90;99.90;;;;;;5051342;28;20227;-72
2023/12/21 07:57:32;;;;;;;0.00;0.00;;;8.00;99.90;;;;;;5051781;28;20178;-72
2023/12/21 07:59:58;;;;;;;0.00;0.00;;;8.00;99.90;;;;;;5051342;28;20668;-72
2023/12/21 08:02:23;;;;;;;0.00;0.00;;;8.00;99.90;;;;;;5051207;28;20601;-72
2023/12/21 08:04:49;;;;;;;0.00;0.00;;;8.00;99.90;;;;;;5051467;28;20288;-72
2023/12/21 08:07:15;;;;;;;0.00;0.00;;;8.00;99.90;;;;;;5051366;28;20263;-72
2023/12/21 08:09:41;;;;;;;0.00;0.00;;;7.90;99.90;;;;;;5051159;28;20213;-72
2023/12/21 08:12:08;;;;;;;0.00;0.00;;;8.00;99.90;;;;;;5051212;28;20189;-72
2023/12/21 08:14:36;;;;;;;0.00;0.00;;;8.00;99.90;;;;;;5051358;28;20169;-72
2023/12/21 08:17:06;;;;;;;0.00;0.00;;;7.90;99.90;;;;;;5051155;28;20180;-71
2023/12/21 08:19:32;;;;;;;0.00;0.00;;;7.90;99.90;;;;;;5050013;28;20192;-72
2023/12/21 08:21:58;;;;;;;0.00;0.00;;;8.00;99.90;;;;;;5051106;28;20217;-71
2023/12/21 08:24:23;;;;;;;0.00;0.00;;;8.00;99.90;;;;;;5052289;28;20641;-71
2023/12/21 08:26:49;;;;;;;0.00;0.00;;;8.00;99.90;;;;;;5055102;28;20174;-71
2023/12/21 08:29:14;;;;;;;0.00;0.00;;;8.00;99.90;;;;;;5055308;28;20247;-71
2023/12/21 08:31:40;;;;;;;0.00;0.00;;;8.00;99.90;;;;;;5054021;28;20223;-72
2023/12/21 08:34:05;;;;;;;0.00;0.00;;;8.00;99.90;;;;;;5055065;28;20580;-71
2023/12/21 08:36:31;;;;;;;0.00;0.00;;;8.00;99.90;;;;;;5053796;28;20227;-72
2023/12/21 08:38:57;;;;;;;0.00;0.00;;;8.10;99.90;;;;;;5054748;28;20640;-71
2023/12/21 08:41:24;;;;;;;0.00;0.00;;;8.10;99.90;;;;;;5054930;28;20579;-72
2023/12/21 08:43:50;;;;;;;0.00;0.00;;;8.10;99.90;;;;;;5054917;28;20319;-72
2023/12/21 08:46:15;;;;;;;0.00;0.00;;;8.10;99.90;;;;;;5055005;28;20193;-73
2023/12/21 08:48:41;;;;;;;0.00;0.00;;;8.10;99.90;;;;;;5054711;28;20586;-72
2023/12/21 08:51:06;;;;;;;0.00;0.00;;;8.10;99.90;;;;;;5054731;28;20182;-72
2023/12/21 08:53:32;;;;;;;0.00;0.00;;;8.20;99.90;;;;;;5054880;28;20173;-72
2023/12/21 08:55:58;;;;;;;0.00;0.00;;;8.20;99.90;;;;;;5054738;28;20176;-71
2023/12/21 08:58:24;;;;;;;0.00;0.00;;;8.20;99.90;;;;;;5054757;28;20286;-72
2023/12/21 09:00:49;;;;;;;0.00;0.00;;;8.20;99.90;;;;;;5054560;28;20251;-71
2023/12/21 09:03:16;;;;;;;0.00;0.00;;;8.20;99.90;;;;;;5054683;28;20170;-72
2023/12/21 09:05:41;;;;;;;0.00;0.00;;;8.30;99.90;;;;;;5054497;28;20169;-72
2023/12/21 09:08:07;;;;;;;0.00;0.00;;;8.30;99.90;;;;;;5054468;28;20304;-71
2023/12/21 09:10:32;;;;;;;0.00;0.00;;;8.30;99.90;;;;;;5054477;28;20172;-72
2023/12/21 09:12:59;;;;;;;0.00;0.00;;;8.30;99.90;;;;;;5054285;28;20667;-72
2023/12/21 09:15:26;;;;;;;0.00;0.00;;;8.30;99.90;;;;;;5054366;28;20640;-72
2023/12/21 09:17:53;;;;;;;0.00;0.00;;;8.40;99.90;;;;;;5054316;28;20173;-73
2023/12/21 09:20:18;;;;;;;0.00;0.00;;;8.40;99.90;;;;;;5054031;28;20216;-73
2023/12/21 09:22:45;;;;;;;0.00;0.00;;;8.40;99.90;;;;;;5053985;28;20185;-71
2023/12/21 09:25:11;;;;;;;0.00;0.00;;;8.40;99.90;;;;;;5054179;28;20219;-73
2023/12/21 09:27:36;;;;;;;0.00;0.00;;;8.40;99.90;;;;;;5054178;28;20190;-72
2023/12/21 09:30:05;;;;;;;0.00;0.00;;;8.40;99.90;;;;;;5053919;28;20177;-72
2023/12/21 09:32:31;;;;;;;0.00;0.00;;;8.40;99.90;;;;;;5054253;28;20216;-72
2023/12/21 09:34:56;;;;;;;0.00;0.00;;;8.40;99.90;;;;;;5052550;28;20205;-72
2023/12/21 09:37:22;;;;;;;0.00;0.00;;;8.40;99.90;;;;;;5052881;28;20169;-72
2023/12/21 09:39:47;;;;;;;0.00;0.00;;;8.40;99.90;;;;;;5053563;28;20559;-72
2023/12/21 09:42:15;;;;;;;0.00;0.00;;;8.40;99.90;;;;;;5054059;28;20585;-72
2023/12/21 09:44:44;;;;;;;0.00;0.00;;;8.40;99.90;;;;;;5053797;28;20182;-71
2023/12/21 09:47:13;;;;;;;0.00;0.00;;;8.40;99.90;;;;;;5053772;28;20181;-72
2023/12/21 09:49:40;;;;;;;0.00;0.00;;;8.40;99.90;;;;;;5052520;28;20173;-72
2023/12/21 09:52:08;;;;;;;0.00;0.00;;;8.40;99.90;;;;;;5053633;28;20649;-72
2023/12/21 09:54:36;;;;;;;0.00;0.00;;;8.40;99.90;;;;;;5053799;28;20182;-73
2023/12/21 09:57:04;;;;;;;0.00;0.00;;;8.30;99.90;;;;;;5053559;28;20173;-73
2023/12/21 09:59:31;;;;;;;0.00;0.00;;;8.40;99.90;;;;;;5053660;28;20181;-73
2023/12/21 10:01:57;;;;;;;0.00;0.00;;;8.40;99.90;;;;;;5053579;28;20224;-73
2023/12/21 10:04:23;;;;;;;0.00;0.00;;;8.40;99.90;;;;;;5052398;28;20173;-73
2023/12/21 10:06:49;;;;;;;0.00;0.00;;;8.30;99.90;;;;;;5053882;28;20636;-73
2023/12/21 10:09:15;;;;;;;0.17;0.17;;;8.40;99.90;;;;;;5053956;28;20174;-72
2023/12/21 10:11:42;;;;;;;0.00;0.00;;;8.40;99.90;;;;;;5053887;28;20174;-73
2023/12/21 10:14:19;;;;;;;0.00;0.00;;;8.40;99.90;;;;;;5053647;28;20649;-71
2023/12/21 10:16:45;;;;;;;0.00;0.00;;;8.50;99.90;;;;;;5053630;28;20527;-70
2023/12/21 10:19:11;;;;;;;0.00;0.00;;;8.50;99.90;;;;;;5053580;28;20185;-71
2023/12/21 10:21:41;;;;;;;0.00;0.00;;;8.50;99.90;;;;;;5060690;28;20217;-71
2023/12/21 10:24:07;;;;;;;0.00;0.00;;;8.60;99.90;;;;;;5060609;28;20256;-71
2023/12/21 10:26:44;;;;;;;0.00;0.00;;;8.60;99.90;;;;;;5067338;28;20197;-73
2023/12/21 10:29:16;;;;;;;0.00;0.00;;;8.60;99.90;;;;;;5069805;28;20256;-72
2023/12/21 10:31:47;;;;;;;0.00;0.00;;;8.70;99.90;;;;;;5068249;28;20252;-72
2023/12/21 10:34:12;;;;;;;0.00;0.00;;;8.70;99.90;;;;;;5067065;28;20245;-71
2023/12/21 10:36:40;;;;;;;0.00;0.00;;;8.70;99.90;;;;;;5065831;28;20180;-73
2023/12/21 10:39:06;;;;;;;0.00;0.00;;;8.80;99.90;;;;;;5059153;28;20728;-72
2023/12/21 10:41:32;;;;;;;0.00;0.00;;;8.80;99.90;;;;;;5054687;28;20219;-71
2023/12/21 10:43:59;;;;;;;0.00;0.00;;;8.80;99.90;;;;;;5062168;28;20189;-70
2023/12/21 10:46:31;;;;;;;0.00;0.00;;;8.90;99.90;;;;;;5061533;28;20212;-71
2023/12/21 10:49:05;;;;;;;0.00;0.00;;;8.90;99.90;;;;;;5058972;28;20184;-71
2023/12/21 10:51:31;;;;;;;0.00;0.00;;;8.90;99.90;;;;;;5059704;28;20178;-72
2023/12/21 10:54:02;;;;;;;0.00;0.00;;;9.00;99.90;;;;;;5061483;28;20208;-72
2023/12/21 10:56:28;;;;;;;0.00;0.00;;;9.00;99.90;;;;;;5053586;28;20281;-72
2023/12/21 10:58:55;;;;;;;0.00;0.00;;;9.00;99.90;;;;;;5052666;28;20707;-75
2023/12/21 11:01:22;;;;;;;0.00;0.00;;;9.10;99.90;;;;;;5051272;28;20244;-74
2023/12/21 11:03:49;;;;;;;0.00;0.00;;;9.10;99.90;;;;;;5052506;28;20166;-74
2023/12/21 11:06:19;;;;;;;0.00;0.00;;;9.20;99.90;;;;;;5052513;28;20220;-74
2023/12/21 11:08:45;;;;;;;0.00;0.00;;;9.20;99.90;;;;;;5052346;28;20212;-74
2023/12/21 11:11:15;;;;;;;0.00;0.00;;;9.30;99.90;;;;;;5052376;28;20181;-74
2023/12/21 11:13:44;;;;;;;0.00;0.00;;;9.30;99.90;;;;;;5052216;28;20239;-74
2023/12/21 11:16:13;;;;;;;0.00;0.00;;;9.30;99.90;;;;;;5052243;28;20239;-74
2023/12/21 11:18:40;;;;;;;0.00;0.00;;;9.30;99.90;;;;;;5052154;28;20223;-74
2023/12/21 11:21:06;;;;;;;0.00;0.00;;;9.30;99.90;;;;;;5052101;28;20212;-75
2023/12/21 11:23:32;;;;;;;0.00;0.00;;;9.30;99.90;;;;;;5052080;28;20166;-73
2023/12/21 11:25:58;;;;;;;0.00;0.00;;;9.30;99.90;;;;;;5052022;28;20201;-74
2023/12/21 11:28:27;;;;;;;0.00;0.00;;;9.30;99.90;;;;;;5052070;28;20207;-74
2023/12/21 11:30:53;;;;;;;0.00;0.00;;;9.30;99.90;;;;;;5051914;28;20177;-73
2023/12/21 11:33:28;;;;;;;0.00;0.00;;;9.30;99.90;;;;;;5050725;28;20181;-72
2023/12/21 11:35:54;;;;;;;0.10;0.10;;;9.30;99.90;;;;;;5051799;28;20181;-73
2023/12/21 11:38:19;;;;;;;0.00;0.00;;;9.30;99.90;;;;;;5051652;28;20764;-72
2023/12/21 11:40:49;;;;;;;0.00;0.00;;;9.30;99.90;;;;;;5051571;28;20668;-72
2023/12/21 11:43:21;;;;;;;0.00;0.00;;;9.30;99.90;;;;;;5051768;28;20203;-73
2023/12/21 11:45:48;;;;;;;0.00;0.00;;;9.20;99.90;;;;;;5051776;28;20668;-72
2023/12/21 11:48:17;;;;;;;0.00;0.00;;;9.20;99.90;;;;;;5051797;28;20185;-72
2023/12/21 11:50:43;;;;;;;0.00;0.00;;;9.20;99.90;;;;;;5051472;28;20252;-72
2023/12/21 11:53:10;;;;;;;0.00;0.00;;;9.20;99.90;;;;;;5051561;28;20296;-73
2023/12/21 11:55:41;;;;;;;0.00;0.00;;;9.10;99.90;;;;;;5051722;28;20252;-72
2023/12/21 11:58:16;;;;;;;0.00;0.00;;;9.10;99.90;;;;;;5051544;28;20260;-72
2023/12/21 12:00:49;;;;;;;0.00;0.00;;;9.10;99.90;;;;;;5050960;28;20213;-72
2023/12/21 12:03:15;;;;;;;0.00;0.00;;;9.00;99.90;;;;;;5051526;28;20201;-72
2023/12/21 12:05:41;;;;;;;0.00;0.00;;;9.00;99.90;;;;;;5051395;28;20255;-71
2023/12/21 12:08:06;;;;;;;0.00;0.00;;;9.10;99.90;;;;;;5051447;28;20620;-72
2023/12/21 12:10:32;;;;;;;0.00;0.00;;;9.00;99.90;;;;;;5051328;28;20199;-71
2023/12/21 12:12:59;;;;;;;0.00;0.00;;;9.00;99.90;;;;;;5051363;28;20185;-71
2023/12/21 12:15:24;;;;;;;0.00;0.00;;;8.90;99.90;;;;;;5051301;28;20186;-71
2023/12/21 12:17:50;;;;;;;0.00;0.00;;;8.90;99.90;;;;;;5051294;28;20181;-72
2023/12/21 12:20:15;;;;;;;0.00;0.00;;;8.80;99.90;;;;;;5051486;28;20201;-72
2023/12/21 12:22:43;;;;;;;0.00;0.00;;;8.80;99.90;;;;;;5051277;28;20607;-72
2023/12/21 12:25:08;;;;;;;0.00;0.00;;;8.80;99.90;;;;;;5051312;28;20222;-72
2023/12/21 12:27:34;;;;;;;0.00;0.00;;;8.80;99.90;;;;;;5051305;28;20268;-72
2023/12/21 12:30:00;;;;;;;0.00;0.00;;;8.80;99.90;;;;;;5051297;28;20178;-71
2023/12/21 12:32:26;;;;;;;0.00;0.00;;;8.80;99.90;;;;;;5051319;28;20173;-72
2023/12/21 12:34:52;;;;;;;0.00;0.00;;;8.80;99.90;;;;;;5051247;28;20200;-72
2023/12/21 12:37:20;;;;;;;0.00;0.00;;;8.80;99.90;;;;;;5051309;28;20531;-72
2023/12/21 12:39:47;;;;;;;0.00;0.00;;;8.80;99.90;;;;;;5051100;28;20296;-71
2023/12/21 12:42:12;;;;;;;0.00;0.00;;;8.90;99.90;;;;;;5051138;28;20547;-72
2023/12/21 12:44:38;;;;;;;0.00;0.00;;;8.90;99.90;;;;;;5051351;28;20174;-72
2023/12/21 12:47:05;;;;;;;0.00;0.00;;;8.80;99.90;;;;;;5050939;28;20184;-73
2023/12/21 12:49:34;;;;;;;0.00;0.00;;;8.90;99.90;;;;;;5051206;28;20174;-73
2023/12/21 12:52:00;;;;;;;0.00;0.00;;;8.90;99.90;;;;;;5050887;28;20197;-72